Time;durP1;ratioP1;P1;durP2;ratioP2;P2;SDS_P1;SDS_P2;PMS_P1;PMS_P2;Temp;Humidity;BMP_temperature;BMP_pressure;BME280_temperature;BME280_humidity;BME280_pressure;Samples;Min_cycle;Max_cycle;Signal;HPM_P1;HPM_P2
2021/09/23 00:00:17;;;;;;;4.20;2.38;;;9.80;99.90;;;;;;5029272;28;20029;-65
2021/09/23 00:05:16;;;;;;;5.05;2.28;;;9.80;99.90;;;;;;5029158;28;20417;-65
2021/09/23 00:07:43;;;;;;;6.97;2.38;;;9.80;99.90;;;;;;5028157;28;20029;-66
2021/09/23 00:10:11;;;;;;;2.75;2.55;;;9.80;99.90;;;;;;5029259;28;20033;-66
2021/09/23 00:12:37;;;;;;;4.05;2.50;;;9.80;99.90;;;;;;5029212;28;20029;-68
2021/09/23 00:15:05;;;;;;;4.80;2.28;;;9.80;99.90;;;;;;5029249;28;20025;-68
2021/09/23 00:17:31;;;;;;;3.80;2.05;;;9.80;99.90;;;;;;5027920;28;20025;-68
2021/09/23 00:19:57;;;;;;;4.22;2.58;;;9.80;99.90;;;;;;5028906;28;20017;-68
2021/09/23 00:22:23;;;;;;;7.57;2.25;;;9.80;99.90;;;;;;5029043;28;20105;-68
2021/09/23 00:24:49;;;;;;;4.38;2.17;;;9.80;99.90;;;;;;5028931;28;20025;-65
2021/09/23 00:27:15;;;;;;;5.78;2.67;;;9.80;99.90;;;;;;5028839;28;20033;-65
2021/09/23 00:29:40;;;;;;;2.65;2.13;;;9.80;99.90;;;;;;5028970;28;20495;-65
2021/09/23 00:32:06;;;;;;;4.35;2.40;;;9.90;99.90;;;;;;5028851;28;20036;-65
2021/09/23 00:34:32;;;;;;;4.78;2.60;;;9.90;99.90;;;;;;5028826;28;20070;-65
2021/09/23 00:36:58;;;;;;;3.35;2.20;;;9.90;99.90;;;;;;5028846;28;20025;-65
2021/09/23 00:39:24;;;;;;;5.05;2.00;;;9.90;99.90;;;;;;5028740;28;20017;-65
2021/09/23 00:41:51;;;;;;;4.45;2.10;;;9.90;99.90;;;;;;5029036;28;20116;-65
2021/09/23 00:44:22;;;;;;;3.28;1.98;;;9.90;99.90;;;;;;5028539;28;20033;-65
2021/09/23 00:46:50;;;;;;;2.65;2.00;;;9.90;99.90;;;;;;5028741;28;20059;-65
2021/09/23 00:49:17;;;;;;;2.88;1.90;;;9.90;99.90;;;;;;5029030;28;20057;-65
2021/09/23 00:51:44;;;;;;;4.03;2.22;;;9.90;99.90;;;;;;5028546;28;20388;-66
2021/09/23 00:54:10;;;;;;;6.38;2.30;;;9.90;99.90;;;;;;5028813;28;20400;-66
2021/09/23 00:56:37;;;;;;;3.25;2.03;;;9.90;99.90;;;;;;5028457;28;20057;-65
2021/09/23 00:59:03;;;;;;;3.88;2.17;;;9.90;99.90;;;;;;5028310;28;20017;-64
2021/09/23 01:01:29;;;;;;;3.75;2.22;;;9.90;99.90;;;;;;5028589;28;20030;-65
2021/09/23 01:03:55;;;;;;;3.50;2.17;;;10.00;99.90;;;;;;5028683;28;20018;-65
2021/09/23 01:06:21;;;;;;;2.35;1.80;;;10.00;99.90;;;;;;5028540;28;20060;-66
2021/09/23 01:08:57;;;;;;;5.32;2.38;;;10.00;99.90;;;;;;5028698;28;20105;-65
2021/09/23 01:11:25;;;;;;;3.60;2.28;;;10.00;99.90;;;;;;5028677;28;20018;-65
2021/09/23 01:13:51;;;;;;;4.18;2.15;;;10.00;99.90;;;;;;5028563;28;20430;-65
2021/09/23 01:16:17;;;;;;;4.18;2.20;;;10.00;99.90;;;;;;5028376;28;20107;-65
2021/09/23 01:18:43;;;;;;;3.80;2.20;;;10.00;99.90;;;;;;5028468;28;20132;-64
2021/09/23 01:21:09;;;;;;;4.70;2.42;;;10.00;99.90;;;;;;5028348;28;20014;-64
2021/09/23 01:23:39;;;;;;;4.82;2.47;;;10.00;99.90;;;;;;5028330;28;20029;-64
2021/09/23 01:26:15;;;;;;;4.38;2.90;;;10.00;99.90;;;;;;5014647;28;20033;-65
2021/09/23 01:28:42;;;;;;;3.28;2.17;;;10.00;99.90;;;;;;5028452;28;20033;-65
2021/09/23 01:31:08;;;;;;;3.63;2.15;;;10.00;99.90;;;;;;5028063;28;20028;-65
2021/09/23 01:33:35;;;;;;;4.78;2.35;;;10.10;99.90;;;;;;5028464;28;20030;-64
2021/09/23 01:36:00;;;;;;;4.25;2.20;;;10.10;99.90;;;;;;5028078;28;20044;-65
2021/09/23 01:38:27;;;;;;;6.38;2.50;;;10.10;99.90;;;;;;5028276;28;20030;-65
2021/09/23 01:40:54;;;;;;;4.95;2.67;;;10.10;99.90;;;;;;5027890;28;20033;-65
2021/09/23 01:43:21;;;;;;;7.75;2.42;;;10.10;99.90;;;;;;5027936;28;20033;-65
2021/09/23 01:45:47;;;;;;;5.72;2.05;;;10.10;99.90;;;;;;5028235;28;20041;-65
2021/09/23 01:48:13;;;;;;;4.35;2.10;;;10.10;99.90;;;;;;5027869;28;20022;-65
2021/09/23 01:50:39;;;;;;;4.25;2.05;;;10.10;99.90;;;;;;5027953;28;20029;-65
2021/09/23 01:53:05;;;;;;;2.58;1.83;;;10.10;99.90;;;;;;5027739;28;20028;-65
2021/09/23 01:55:31;;;;;;;4.40;2.42;;;10.10;99.90;;;;;;5027610;28;20340;-65
2021/09/23 01:57:58;;;;;;;3.08;1.90;;;10.10;99.90;;;;;;5027810;28;20030;-65
2021/09/23 02:00:24;;;;;;;3.78;1.90;;;10.10;99.90;;;;;;5027913;28;20117;-65
2021/09/23 02:02:50;;;;;;;3.67;1.80;;;10.10;99.90;;;;;;5028015;28;20124;-66
2021/09/23 02:05:16;;;;;;;3.08;2.03;;;10.10;99.90;;;;;;5027737;28;20484;-66
2021/09/23 02:07:42;;;;;;;3.83;2.03;;;10.10;99.90;;;;;;5027977;28;20046;-66
2021/09/23 02:10:09;;;;;;;2.95;1.67;;;10.10;99.90;;;;;;5028132;28;20491;-66
2021/09/23 02:12:35;;;;;;;3.45;1.90;;;10.10;99.90;;;;;;5030942;28;20419;-66
2021/09/23 02:15:01;;;;;;;4.93;1.95;;;10.10;99.90;;;;;;5030858;28;20022;-65
2021/09/23 02:17:27;;;;;;;3.10;1.60;;;10.10;99.90;;;;;;5031003;28;20032;-65
2021/09/23 02:19:53;;;;;;;3.17;1.52;;;10.10;99.90;;;;;;5031353;28;20381;-66
2021/09/23 02:22:18;;;;;;;3.55;1.48;;;10.20;99.90;;;;;;5031000;28;20040;-66
2021/09/23 02:53:48;;;;;;;2.65;1.40;;;10.20;99.90;;;;;;5030516;28;20030;-65
2021/09/23 02:56:14;;;;;;;1.20;1.00;;;10.20;99.90;;;;;;5030181;28;20048;-65
2021/09/23 02:58:40;;;;;;;1.30;1.15;;;10.20;99.90;;;;;;5030438;28;20044;-65
2021/09/23 03:01:06;;;;;;;2.00;1.30;;;10.20;99.90;;;;;;5030213;28;20037;-65
2021/09/23 03:03:31;;;;;;;1.30;0.98;;;10.20;99.90;;;;;;5030346;28;20104;-65
2021/09/23 03:05:57;;;;;;;1.52;1.02;;;10.20;99.90;;;;;;5030160;28;20034;-65
2021/09/23 03:08:23;;;;;;;4.10;1.20;;;10.20;99.90;;;;;;5030103;28;20025;-65
2021/09/23 03:10:49;;;;;;;1.10;0.80;;;10.20;99.90;;;;;;5030035;28;20116;-65
2021/09/23 03:13:15;;;;;;;2.65;0.85;;;10.20;99.90;;;;;;5030193;28;20066;-65
2021/09/23 03:15:40;;;;;;;2.33;0.90;;;10.20;99.90;;;;;;5030445;28;20431;-65
2021/09/23 03:18:06;;;;;;;1.77;0.95;;;10.20;99.90;;;;;;5030110;28;20017;-65
2021/09/23 03:20:32;;;;;;;1.67;0.90;;;10.30;99.90;;;;;;5030266;28;20515;-65
2021/09/23 03:22:58;;;;;;;1.30;0.77;;;10.30;99.90;;;;;;5029693;28;20026;-65
2021/09/23 03:25:23;;;;;;;4.25;0.90;;;10.30;99.90;;;;;;5029782;28;20041;-65
2021/09/23 03:27:50;;;;;;;0.70;0.70;;;10.20;99.90;;;;;;5029831;28;20022;-65
2021/09/23 03:30:16;;;;;;;1.25;0.95;;;10.20;99.90;;;;;;5030039;28;20034;-65
2021/09/23 03:32:42;;;;;;;0.90;0.80;;;10.20;99.90;;;;;;5029658;28;20022;-65
2021/09/23 03:35:09;;;;;;;1.30;0.70;;;10.20;99.90;;;;;;5029843;28;20465;-65
2021/09/23 03:37:34;;;;;;;0.60;0.60;;;10.20;99.90;;;;;;5028455;28;20063;-65
2021/09/23 03:40:01;;;;;;;0.88;0.50;;;10.30;99.90;;;;;;5029598;28;20022;-66
2021/09/23 03:42:27;;;;;;;0.75;0.75;;;10.20;99.90;;;;;;5029534;28;20145;-66
2021/09/23 03:44:53;;;;;;;2.55;0.90;;;10.20;99.90;;;;;;5029554;28;20033;-66
2021/09/23 03:47:18;;;;;;;1.33;0.70;;;10.20;99.90;;;;;;5029770;28;20500;-66
2021/09/23 03:49:44;;;;;;;0.73;0.73;;;10.30;99.90;;;;;;5029637;28;20465;-66
2021/09/23 03:52:10;;;;;;;1.23;0.75;;;10.20;99.90;;;;;;5029412;28;20114;-66
2021/09/23 03:54:36;;;;;;;0.63;0.60;;;10.20;99.90;;;;;;5029335;28;20029;-66
2021/09/23 03:57:02;;;;;;;1.40;1.02;;;10.20;99.90;;;;;;5029344;28;20052;-66
2021/09/23 03:59:27;;;;;;;1.20;1.10;;;10.20;99.90;;;;;;5029414;28;20530;-66
2021/09/23 04:01:53;;;;;;;2.25;0.90;;;10.20;99.90;;;;;;5029289;28;20045;-65
2021/09/23 04:04:19;;;;;;;1.00;0.90;;;10.20;99.90;;;;;;5029516;28;20060;-66
2021/09/23 04:06:45;;;;;;;1.08;0.98;;;10.20;99.90;;;;;;5028043;28;20068;-65
2021/09/23 04:09:12;;;;;;;1.80;0.80;;;10.20;99.90;;;;;;5029420;28;20491;-65
2021/09/23 04:11:38;;;;;;;1.38;0.90;;;10.20;99.90;;;;;;5029137;28;20036;-65
2021/09/23 04:14:05;;;;;;;1.25;0.90;;;10.20;99.90;;;;;;5029059;28;20122;-66
2021/09/23 04:16:32;;;;;;;1.10;1.00;;;10.20;99.90;;;;;;5029092;28;20031;-65
2021/09/23 04:18:58;;;;;;;1.25;0.77;;;10.20;99.90;;;;;;5028997;28;20025;-65
2021/09/23 04:21:24;;;;;;;0.73;0.73;;;10.20;99.90;;;;;;5029066;28;20029;-65
2021/09/23 04:23:50;;;;;;;1.08;0.90;;;10.20;99.90;;;;;;5028791;28;20070;-65
2021/09/23 04:26:16;;;;;;;0.90;0.80;;;10.20;99.90;;;;;;5029021;28;20047;-67
2021/09/23 04:28:41;;;;;;;2.92;1.02;;;10.20;99.90;;;;;;5029060;28;20018;-67
2021/09/23 04:31:07;;;;;;;1.20;0.90;;;10.20;99.90;;;;;;5028997;28;20443;-68
2021/09/23 04:33:33;;;;;;;2.88;1.05;;;10.20;99.90;;;;;;5027978;28;20026;-64
2021/09/23 04:35:59;;;;;;;2.53;0.88;;;10.20;99.90;;;;;;5028731;28;20032;-65
2021/09/23 04:38:25;;;;;;;1.67;0.93;;;10.20;99.90;;;;;;5029130;28;20377;-66
2021/09/23 04:40:50;;;;;;;3.13;1.02;;;10.20;99.90;;;;;;5028729;28;20029;-70
2021/09/23 04:43:17;;;;;;;1.08;0.98;;;10.20;99.90;;;;;;5028892;28;20029;-64
2021/09/23 04:45:43;;;;;;;2.75;1.10;;;10.30;99.90;;;;;;5028604;28;20065;-65
2021/09/23 04:48:08;;;;;;;1.23;0.93;;;10.30;99.90;;;;;;5028284;28;20042;-66
2021/09/23 04:50:34;;;;;;;1.42;1.17;;;10.30;99.90;;;;;;5028315;28;20380;-65
2021/09/23 04:53:00;;;;;;;1.33;1.02;;;10.30;99.90;;;;;;5027467;28;20137;-67
2021/09/23 04:55:27;;;;;;;1.52;1.10;;;10.30;99.90;;;;;;5025223;28;20088;-67
2021/09/23 04:57:53;;;;;;;1.08;0.98;;;10.30;99.90;;;;;;5021906;28;20030;-66
2021/09/23 05:00:19;;;;;;;1.80;1.10;;;10.30;99.90;;;;;;5017905;28;20026;-66
2021/09/23 05:02:47;;;;;;;1.92;1.00;;;10.30;99.90;;;;;;5027522;28;20026;-66
2021/09/23 05:05:13;;;;;;;1.30;1.10;;;10.30;99.90;;;;;;5022477;28;20042;-66
2021/09/23 05:07:39;;;;;;;1.38;1.08;;;10.30;99.90;;;;;;5025975;28;20030;-66
2021/09/23 05:10:05;;;;;;;4.78;1.88;;;10.30;99.90;;;;;;5026955;28;20065;-65
2021/09/23 05:12:31;;;;;;;1.63;1.00;;;10.30;99.90;;;;;;5028069;28;20109;-66
2021/09/23 05:14:57;;;;;;;2.55;1.15;;;10.30;99.90;;;;;;5028060;28;20442;-65
2021/09/23 05:17:22;;;;;;;1.70;1.17;;;10.30;99.90;;;;;;5028053;28;20037;-68
2021/09/23 05:19:49;;;;;;;2.38;1.08;;;10.30;99.90;;;;;;5028135;28;20026;-65
2021/09/23 05:22:16;;;;;;;1.48;1.10;;;10.30;99.90;;;;;;5027942;28;20030;-64
2021/09/23 05:24:47;;;;;;;3.53;1.90;;;10.30;99.90;;;;;;5028436;28;20109;-64
2021/09/23 05:27:13;;;;;;;2.85;1.10;;;10.30;99.90;;;;;;5028121;28;20034;-64
2021/09/23 05:29:40;;;;;;;1.52;1.35;;;10.30;99.90;;;;;;5028863;28;20022;-64
2021/09/23 05:32:06;;;;;;;4.20;1.25;;;10.30;99.90;;;;;;5028158;28;20033;-64
2021/09/23 05:34:32;;;;;;;2.03;1.20;;;10.30;99.90;;;;;;5027625;28;20497;-68
2021/09/23 05:36:57;;;;;;;2.35;1.60;;;10.30;99.90;;;;;;5026889;28;20040;-67
2021/09/23 05:39:23;;;;;;;1.25;1.13;;;10.30;99.90;;;;;;5026987;28;20029;-64
2021/09/23 05:41:49;;;;;;;2.65;1.30;;;10.30;99.90;;;;;;5027473;28;20029;-68
2021/09/23 05:44:14;;;;;;;4.03;1.20;;;10.40;99.90;;;;;;5027946;28;20419;-69
2021/09/23 05:46:41;;;;;;;3.72;1.60;;;10.30;99.90;;;;;;5029607;28;20068;-68
2021/09/23 05:49:06;;;;;;;3.03;1.20;;;10.40;99.90;;;;;;5027652;28;20070;-68
2021/09/23 05:51:32;;;;;;;3.58;1.08;;;10.40;99.90;;;;;;5026755;28;20060;-69
2021/09/23 05:53:58;;;;;;;1.23;1.02;;;10.40;99.90;;;;;;5027166;28;20032;-68
2021/09/23 05:56:24;;;;;;;2.30;1.20;;;10.40;99.90;;;;;;5029327;28;20072;-73
2021/09/23 05:58:49;;;;;;;2.40;1.10;;;10.40;99.90;;;;;;5028394;28;20473;-69
2021/09/23 06:01:15;;;;;;;3.28;1.40;;;10.40;99.90;;;;;;5028542;28;20029;-69
2021/09/23 06:03:41;;;;;;;1.60;1.20;;;10.40;99.90;;;;;;5029641;28;20029;-69
2021/09/23 06:06:06;;;;;;;3.13;1.27;;;10.30;99.90;;;;;;5030712;28;20476;-69
2021/09/23 06:08:32;;;;;;;3.70;1.48;;;10.40;99.90;;;;;;5030322;28;20064;-70
2021/09/23 06:10:58;;;;;;;2.15;0.90;;;10.30;99.90;;;;;;5030613;28;20028;-69
2021/09/23 06:13:24;;;;;;;1.50;0.90;;;10.30;99.90;;;;;;5030541;28;20430;-69
2021/09/23 06:15:50;;;;;;;2.10;1.17;;;10.30;99.90;;;;;;5027560;28;20568;-71
2021/09/23 06:18:16;;;;;;;1.48;0.90;;;10.30;99.90;;;;;;5030106;28;20042;-71
2021/09/23 06:20:44;;;;;;;3.20;1.10;;;10.30;99.90;;;;;;5030970;28;20029;-66
2021/09/23 06:23:10;;;;;;;2.42;0.80;;;10.30;99.90;;;;;;5030710;28;20037;-75
2021/09/23 06:25:38;;;;;;;2.28;0.80;;;10.30;99.90;;;;;;5030631;28;20186;-63
2021/09/23 06:28:03;;;;;;;0.77;0.75;;;10.30;99.90;;;;;;5030564;28;20030;-66
2021/09/23 06:30:29;;;;;;;0.90;0.90;;;10.30;99.90;;;;;;5030663;28;20500;-69
2021/09/23 06:32:55;;;;;;;1.95;1.55;;;10.30;99.90;;;;;;5030647;28;20013;-69
2021/09/23 06:35:21;;;;;;;1.90;0.80;;;10.30;99.90;;;;;;5030084;28;20086;-69
2021/09/23 06:37:49;;;;;;;1.35;1.02;;;10.30;99.90;;;;;;5018903;28;20032;-69
2021/09/23 06:40:16;;;;;;;1.55;1.10;;;10.30;99.90;;;;;;5030505;28;20380;-67
2021/09/23 06:42:42;;;;;;;1.25;1.10;;;10.30;99.90;;;;;;5030318;28;20033;-67
2021/09/23 06:45:08;;;;;;;31.58;2.47;;;10.30;99.90;;;;;;5024273;28;20022;-67
2021/09/23 06:47:34;;;;;;;1.45;1.20;;;10.40;99.90;;;;;;5030282;28;20021;-68
2021/09/23 06:50:00;;;;;;;4.07;2.03;;;10.60;99.90;;;;;;5030136;28;20021;-67
2021/09/23 06:52:26;;;;;;;1.10;0.93;;;10.60;99.90;;;;;;5030375;28;20057;-66
2021/09/23 06:54:54;;;;;;;3.67;1.70;;;10.50;99.90;;;;;;5029871;28;20065;-66
2021/09/23 06:57:20;;;;;;;2.17;1.20;;;10.50;99.90;;;;;;5029751;28;20512;-66
2021/09/23 06:59:45;;;;;;;1.48;1.10;;;10.50;99.90;;;;;;5030546;28;20021;-69
2021/09/23 07:02:11;;;;;;;1.40;1.00;;;10.50;99.90;;;;;;5030020;28;20600;-67
2021/09/23 07:04:37;;;;;;;2.10;1.13;;;10.50;99.90;;;;;;5028046;28;20094;-67
2021/09/23 07:07:03;;;;;;;1.42;1.20;;;10.40;99.90;;;;;;5029066;28;20022;-67
2021/09/23 07:09:29;;;;;;;1.77;1.40;;;10.40;99.90;;;;;;5029979;28;20022;-66
2021/09/23 07:11:56;;;;;;;2.50;1.40;;;10.40;99.90;;;;;;5030015;28;20022;-67
2021/09/23 07:14:22;;;;;;;4.10;1.52;;;10.40;99.90;;;;;;5029736;28;20026;-67
2021/09/23 07:16:48;;;;;;;2.03;1.38;;;10.40;99.90;;;;;;5029578;28;20049;-67
2021/09/23 07:19:14;;;;;;;3.30;1.38;;;10.40;99.90;;;;;;5029797;28;20017;-67
2021/09/23 07:21:39;;;;;;;2.40;1.40;;;10.40;99.90;;;;;;5029638;28;20029;-67
2021/09/23 07:24:05;;;;;;;1.85;1.00;;;10.30;99.90;;;;;;5028781;28;20606;-66
2021/09/23 07:26:32;;;;;;;1.92;1.10;;;10.40;99.90;;;;;;5026722;28;20066;-65
2021/09/23 07:28:59;;;;;;;15.23;4.03;;;10.30;99.90;;;;;;5029337;28;20014;-65
2021/09/23 07:31:25;;;;;;;1.25;1.15;;;10.30;99.90;;;;;;5028104;28;20033;-65
2021/09/23 07:33:51;;;;;;;3.33;1.05;;;10.30;99.90;;;;;;5029207;28;20018;-65
2021/09/23 07:36:17;;;;;;;5.63;1.50;;;10.30;99.90;;;;;;5029494;28;20113;-65
2021/09/23 07:38:43;;;;;;;2.15;1.27;;;10.30;99.90;;;;;;5029517;28;20592;-67
2021/09/23 07:41:09;;;;;;;3.58;1.27;;;10.30;99.90;;;;;;5026986;28;20116;-67
2021/09/23 07:43:35;;;;;;;1.35;1.10;;;10.30;99.90;;;;;;5027560;28;20031;-68
2021/09/23 07:46:01;;;;;;;3.88;1.30;;;10.30;99.90;;;;;;5025963;28;20037;-67
2021/09/23 07:48:28;;;;;;;3.65;1.30;;;10.30;99.90;;;;;;5026086;28;20020;-69
2021/09/23 07:50:54;;;;;;;3.70;1.38;;;10.30;99.90;;;;;;5026305;28;20042;-67
2021/09/23 07:53:19;;;;;;;1.77;1.38;;;10.30;99.90;;;;;;5026652;28;20446;-67
2021/09/23 07:55:46;;;;;;;5.35;1.80;;;10.30;99.90;;;;;;5029435;28;20529;-67
2021/09/23 07:58:12;;;;;;;2.97;1.67;;;10.30;99.90;;;;;;5029203;28;20038;-67
2021/09/23 08:00:38;;;;;;;1.70;1.17;;;10.30;99.90;;;;;;5029349;28;20029;-67
2021/09/23 08:03:04;;;;;;;2.47;1.33;;;10.40;99.90;;;;;;5027793;28;20021;-67
2021/09/23 08:05:31;;;;;;;1.70;1.20;;;10.40;99.90;;;;;;5029446;28;20045;-67
2021/09/23 08:07:57;;;;;;;2.25;1.08;;;10.40;99.90;;;;;;5028160;28;20026;-67
2021/09/23 08:10:23;;;;;;;2.42;1.00;;;10.30;99.90;;;;;;5029632;28;20025;-67
2021/09/23 08:12:49;;;;;;;1.88;1.10;;;10.30;99.90;;;;;;5029223;28;20025;-67
2021/09/23 08:15:15;;;;;;;3.17;1.30;;;10.30;99.90;;;;;;5029311;28;20059;-67
2021/09/23 08:17:41;;;;;;;3.42;1.40;;;10.30;99.90;;;;;;5028872;28;20498;-67
2021/09/23 08:20:07;;;;;;;2.58;1.42;;;10.30;99.90;;;;;;5028792;28;20025;-67
2021/09/23 08:22:34;;;;;;;1.90;1.08;;;10.30;99.90;;;;;;5029400;28;20025;-67
2021/09/23 08:24:59;;;;;;;1.40;1.10;;;10.30;99.90;;;;;;5028931;28;20381;-67
2021/09/23 08:27:25;;;;;;;7.95;1.40;;;10.30;99.90;;;;;;5029232;28;20025;-67
2021/09/23 08:29:51;;;;;;;2.38;1.42;;;10.30;99.90;;;;;;5029300;28;20477;-67
2021/09/23 08:32:20;;;;;;;2.45;1.60;;;10.30;99.90;;;;;;5028708;28;20458;-67
2021/09/23 08:34:46;;;;;;;2.58;1.35;;;10.30;99.90;;;;;;5028906;28;20400;-67
2021/09/23 08:37:13;;;;;;;2.42;1.02;;;10.30;99.90;;;;;;5029014;28;20039;-67
2021/09/23 08:39:38;;;;;;;2.78;1.20;;;10.30;99.90;;;;;;5028899;28;20060;-67
2021/09/23 08:42:04;;;;;;;4.65;1.67;;;10.30;99.90;;;;;;5028679;28;20072;-67
2021/09/23 08:44:31;;;;;;;4.00;1.80;;;10.20;99.90;;;;;;5028635;28;20491;-67
2021/09/23 08:46:56;;;;;;;1.88;1.60;;;10.20;99.90;;;;;;5028580;28;20520;-67
2021/09/23 08:49:22;;;;;;;1.73;1.42;;;10.20;99.90;;;;;;5028556;28;20053;-67
2021/09/23 08:51:48;;;;;;;3.25;1.38;;;10.20;99.90;;;;;;5028711;28;20025;-73
2021/09/23 08:54:17;;;;;;;2.97;1.65;;;10.20;99.90;;;;;;5028649;28;20017;-67
2021/09/23 08:56:43;;;;;;;2.40;1.38;;;10.30;99.90;;;;;;5014946;28;20090;-67
2021/09/23 08:59:09;;;;;;;2.67;1.60;;;10.30;99.90;;;;;;5028513;28;20025;-67
2021/09/23 09:01:41;;;;;;;8.05;1.80;;;10.20;99.90;;;;;;5028301;28;20032;-67
2021/09/23 09:04:08;;;;;;;1.83;1.60;;;10.20;99.90;;;;;;5028353;28;20086;-67
2021/09/23 09:06:33;;;;;;;4.22;1.95;;;10.20;99.90;;;;;;5028289;28;20101;-67
2021/09/23 09:09:02;;;;;;;3.95;1.80;;;10.10;99.90;;;;;;5028480;28;20105;-67
2021/09/23 09:11:30;;;;;;;4.95;1.73;;;10.10;99.90;;;;;;5028465;28;20030;-67
2021/09/23 09:13:56;;;;;;;3.83;2.10;;;10.10;99.90;;;;;;5028719;28;20049;-68
2021/09/23 09:16:26;;;;;;;3.72;1.83;;;10.10;99.90;;;;;;5028474;28;20078;-67
2021/09/23 09:18:58;;;;;;;2.23;1.60;;;10.10;99.90;;;;;;5028452;28;20401;-70
2021/09/23 09:21:28;;;;;;;2.88;1.55;;;10.20;99.90;;;;;;5031900;28;20045;-68
2021/09/23 09:24:02;;;;;;;;;;;10.10;99.90;;;;;;5025179;28;20029;-68
2021/09/23 09:26:36;;;;;;;4.28;1.95;;;10.10;99.90;;;;;;5031715;28;19920;-68
2021/09/23 09:29:05;;;;;;;3.95;1.63;;;10.10;99.90;;;;;;5031441;28;20060;-68
2021/09/23 09:31:32;;;;;;;3.53;1.73;;;10.00;99.90;;;;;;5031745;28;20032;-69
2021/09/23 09:34:00;;;;;;;7.25;2.00;;;10.00;99.90;;;;;;5031508;28;20063;-68
2021/09/23 09:36:38;;;;;;;2.35;1.75;;;10.00;99.90;;;;;;5030780;28;20074;-68
2021/09/23 09:39:18;;;;;;;3.13;1.75;;;10.00;99.90;;;;;;5031875;28;20151;-68
2021/09/23 09:41:47;;;;;;;2.65;1.63;;;10.00;99.90;;;;;;5020985;28;20024;-68
2021/09/23 09:44:14;;;;;;;6.20;2.00;;;10.00;99.90;;;;;;5027416;28;20032;-68
2021/09/23 09:46:43;;;;;;;5.78;2.03;;;10.00;99.90;;;;;;5031419;28;20033;-68
2021/09/23 09:49:09;;;;;;;3.90;1.85;;;9.90;99.90;;;;;;5031096;28;20014;-69
2021/09/23 09:51:45;;;;;;;5.18;2.42;;;9.90;99.90;;;;;;5032194;28;20032;-68
2021/09/23 09:54:14;;;;;;;3.00;1.90;;;9.90;99.90;;;;;;5031279;28;20032;-67
2021/09/23 09:56:42;;;;;;;4.20;2.30;;;9.90;99.90;;;;;;5028255;28;20493;-67
2021/09/23 09:59:18;;;;;;;4.88;2.30;;;9.90;99.90;;;;;;5027141;28;20029;-67
2021/09/23 10:01:47;;;;;;;4.43;2.42;;;9.90;99.90;;;;;;5029263;28;20520;-67
2021/09/23 10:04:14;;;;;;;6.50;2.42;;;9.80;99.90;;;;;;5030450;28;20405;-67
2021/09/23 10:06:41;;;;;;;4.50;2.25;;;9.90;99.90;;;;;;5030401;28;20040;-67
2021/09/23 10:09:08;;;;;;;4.40;2.53;;;9.90;99.90;;;;;;5030318;28;20033;-67
2021/09/23 10:11:38;;;;;;;3.92;2.40;;;9.80;99.90;;;;;;5027636;28;20037;-68
2021/09/23 10:14:04;;;;;;;3.28;2.13;;;9.80;99.90;;;;;;5020575;28;20358;-67
2021/09/23 10:16:31;;;;;;;4.85;2.55;;;9.80;99.90;;;;;;5022886;28;20485;-67
2021/09/23 10:18:57;;;;;;;5.50;2.45;;;9.80;99.90;;;;;;5024885;28;20056;-65
2021/09/23 10:21:25;;;;;;;4.03;2.35;;;9.80;99.90;;;;;;5027395;28;20026;-65
2021/09/23 10:23:52;;;;;;;4.97;2.55;;;9.80;99.90;;;;;;5030905;28;20030;-65
2021/09/23 10:26:23;;;;;;;4.05;2.30;;;9.80;99.90;;;;;;5030622;28;20033;-65
2021/09/23 10:28:51;;;;;;;7.60;2.70;;;9.80;99.90;;;;;;5030685;28;20066;-65
2021/09/23 10:31:23;;;;;;;6.05;2.83;;;9.80;99.90;;;;;;5029679;28;20022;-65
2021/09/23 10:33:49;;;;;;;3.67;1.85;;;9.80;99.90;;;;;;5030737;28;20025;-65
2021/09/23 10:36:20;;;;;;;4.35;2.35;;;9.80;99.90;;;;;;5030296;28;20025;-65
2021/09/23 10:38:46;;;;;;;4.72;2.25;;;9.80;99.90;;;;;;5030662;28;20050;-65
2021/09/23 10:41:13;;;;;;;5.63;2.75;;;9.80;99.90;;;;;;5030250;28;20385;-65
2021/09/23 10:43:41;;;;;;;5.00;2.63;;;9.80;99.90;;;;;;5030107;28;20105;-65
2021/09/23 10:46:07;;;;;;;4.65;2.70;;;9.80;99.90;;;;;;5020554;28;20034;-65
2021/09/23 10:48:37;;;;;;;5.57;2.20;;;9.80;99.90;;;;;;5013974;28;20147;-66
2021/09/23 10:51:05;;;;;;;3.85;2.17;;;9.80;99.90;;;;;;5019751;28;20030;-67
2021/09/23 10:53:35;;;;;;;3.83;2.28;;;9.80;99.90;;;;;;5014234;28;20520;-67
2021/09/23 10:56:08;;;;;;;4.07;2.20;;;9.70;99.90;;;;;;5013727;28;20046;-67
2021/09/23 10:58:35;;;;;;;2.78;2.40;;;9.70;99.90;;;;;;5014827;28;20026;-68
2021/09/23 11:01:03;;;;;;;5.88;2.25;;;9.70;99.90;;;;;;5029846;28;20026;-67
2021/09/23 11:03:39;;;;;;;5.85;2.58;;;9.70;99.90;;;;;;5020179;28;20025;-67
2021/09/23 11:06:10;;;;;;;5.65;2.53;;;9.60;99.90;;;;;;5029963;28;20049;-67
2021/09/23 11:08:46;;;;;;;4.05;2.03;;;9.60;99.90;;;;;;5028715;28;20613;-67
2021/09/23 11:11:13;;;;;;;4.13;2.28;;;9.60;99.90;;;;;;5029646;28;20112;-67
2021/09/23 11:13:40;;;;;;;8.00;3.20;;;9.60;99.90;;;;;;5026010;28;20032;-67
2021/09/23 11:16:09;;;;;;;5.28;2.65;;;9.60;99.90;;;;;;5021931;28;20021;-66
2021/09/23 11:18:37;;;;;;;6.15;2.42;;;9.60;99.90;;;;;;5029350;28;20028;-65
2021/09/23 11:21:05;;;;;;;4.70;2.60;;;9.60;99.90;;;;;;5029834;28;20040;-66
2021/09/23 11:23:33;;;;;;;7.22;2.70;;;9.60;99.90;;;;;;5029303;28;20062;-66
2021/09/23 11:26:01;;;;;;;5.97;2.95;;;9.50;99.90;;;;;;5021919;28;20503;-66
2021/09/23 11:28:28;;;;;;;4.70;2.67;;;9.50;99.90;;;;;;5029417;28;20499;-67
2021/09/23 11:30:55;;;;;;;6.15;2.58;;;9.50;99.90;;;;;;5020434;28;20021;-67
2021/09/23 11:33:23;;;;;;;7.53;3.47;;;9.50;99.90;;;;;;5029834;28;20080;-67
2021/09/23 11:35:50;;;;;;;5.53;2.47;;;9.50;99.90;;;;;;5029924;28;20025;-68
2021/09/23 11:38:19;;;;;;;12.15;2.85;;;9.50;99.90;;;;;;5029757;28;20026;-66
2021/09/23 11:40:49;;;;;;;7.68;2.88;;;9.50;99.90;;;;;;5029572;28;20017;-66
2021/09/23 11:43:21;;;;;;;3.90;2.40;;;9.50;99.90;;;;;;5029840;28;20026;-66
2021/09/23 11:45:53;;;;;;;5.85;2.67;;;9.50;99.90;;;;;;5029357;28;20396;-66
2021/09/23 11:48:38;;;;;;;7.75;2.60;;;9.50;99.90;;;;;;5029450;28;20082;-66
2021/09/23 11:51:09;;;;;;;5.68;2.58;;;9.60;99.90;;;;;;5025440;28;20382;-66
2021/09/23 11:53:37;;;;;;;7.55;2.38;;;9.70;99.90;;;;;;5029467;28;20082;-66
2021/09/23 11:56:07;;;;;;;4.95;2.65;;;9.60;99.90;;;;;;5029226;28;20049;-66
2021/09/23 11:58:38;;;;;;;5.85;2.40;;;9.60;99.90;;;;;;5029340;28;20064;-66
2021/09/23 12:01:04;;;;;;;3.15;2.50;;;9.50;99.90;;;;;;5029666;28;20025;-66
2021/09/23 12:03:39;;;;;;;5.60;2.80;;;9.50;99.90;;;;;;5029344;28;20029;-66
2021/09/23 12:06:10;;;;;;;6.25;2.58;;;9.50;99.90;;;;;;5029227;28;20036;-66
2021/09/23 12:08:36;;;;;;;6.13;2.63;;;9.50;99.90;;;;;;5020335;28;20017;-66
2021/09/23 12:11:04;;;;;;;6.28;2.80;;;9.50;99.90;;;;;;5029210;28;20044;-66
2021/09/23 12:13:40;;;;;;;4.22;2.92;;;9.50;99.90;;;;;;5028790;28;20533;-66
2021/09/23 12:16:10;;;;;;;4.65;2.55;;;9.50;99.90;;;;;;5029023;28;20078;-66
2021/09/23 12:18:37;;;;;;;5.13;2.65;;;9.50;99.90;;;;;;5028715;28;20104;-66
2021/09/23 12:21:24;;;;;;;5.88;2.80;;;9.50;99.90;;;;;;5029134;28;20029;-66
2021/09/23 12:23:57;;;;;;;5.82;3.20;;;9.50;99.90;;;;;;5029038;28;20022;-66
2021/09/23 12:26:27;;;;;;;4.85;2.58;;;9.50;99.90;;;;;;5028834;28;20041;-66
2021/09/23 12:28:53;;;;;;;2.97;2.22;;;9.50;99.90;;;;;;5029160;28;20033;-66
2021/09/23 12:31:33;;;;;;;13.23;4.75;;;9.50;99.90;;;;;;5029335;28;20037;-66
2021/09/23 12:34:22;;;;;;;4.85;2.80;;;9.40;99.90;;;;;;5029013;28;20028;-66
2021/09/23 12:36:50;;;;;;;3.72;2.40;;;9.40;99.90;;;;;;5028929;28;20453;-66
2021/09/23 12:39:24;;;;;;;6.25;2.90;;;9.40;99.90;;;;;;5028447;28;20400;-66
2021/09/23 12:41:52;;;;;;;4.85;3.15;;;9.40;99.90;;;;;;5029173;28;20118;-66
2021/09/23 12:44:27;;;;;;;8.55;3.42;;;9.40;99.90;;;;;;5028630;28;20026;-66
2021/09/23 12:47:11;;;;;;;11.77;2.70;;;9.40;99.90;;;;;;5028712;28;20745;-66
2021/09/23 12:49:40;;;;;;;6.47;2.70;;;9.40;99.90;;;;;;5028648;28;20029;-66
2021/09/23 12:52:14;;;;;;;6.60;3.13;;;9.40;99.90;;;;;;5028892;28;20082;-66
2021/09/23 12:54:51;;;;;;;7.40;2.88;;;9.40;99.90;;;;;;5027547;28;20053;-66
2021/09/23 12:57:21;;;;;;;4.82;2.75;;;9.40;99.90;;;;;;5028736;28;20075;-66
2021/09/23 12:59:47;;;;;;;5.57;2.88;;;9.40;99.90;;;;;;5028316;28;20551;-66
2021/09/23 13:02:21;;;;;;;4.20;3.00;;;9.40;99.90;;;;;;5028726;28;20579;-66
2021/09/23 13:05:07;;;;;;;5.32;2.90;;;9.40;99.90;;;;;;5025325;28;20056;-66
2021/09/23 13:07:47;;;;;;;17.08;4.65;;;9.40;99.90;;;;;;5025290;28;20075;-66
2021/09/23 13:10:15;;;;;;;8.05;2.97;;;9.40;99.90;;;;;;5027837;28;20040;-66
2021/09/23 13:13:00;;;;;;;4.40;2.75;;;9.30;99.90;;;;;;5028068;28;20040;-66
2021/09/23 13:15:30;;;;;;;5.70;2.97;;;9.30;99.90;;;;;;5025977;28;20029;-65
2021/09/23 13:18:03;;;;;;;4.40;2.80;;;9.40;99.90;;;;;;5024340;28;20021;-69
2021/09/23 13:20:32;;;;;;;4.57;2.88;;;9.40;99.90;;;;;;5027056;28;20029;-65
2021/09/23 13:22:58;;;;;;;5.22;2.95;;;9.30;99.90;;;;;;5027660;28;20024;-66